createdAt,value
2023-05-13T00:00:13.224Z,6.80
2023-05-13T00:02:39.859Z,6.35
2023-05-13T00:05:07.354Z,6.53
2023-05-13T00:07:33.985Z,6.80
2023-05-13T00:10:00.586Z,6.25
2023-05-13T00:12:28.537Z,6.53
2023-05-13T00:14:55.153Z,6.75
2023-05-13T00:17:21.714Z,6.63
2023-05-13T00:19:49.558Z,6.40
2023-05-13T00:22:16.205Z,6.40
2023-05-13T00:24:42.819Z,6.88
2023-05-13T00:27:09.402Z,6.43
2023-05-13T00:29:37.359Z,6.30
2023-05-13T00:32:04.518Z,6.67
2023-05-13T00:34:31.310Z,6.32
2023-05-13T00:36:57.861Z,6.65
2023-05-13T00:39:24.431Z,6.85
2023-05-13T00:41:50.994Z,6.82
2023-05-13T00:44:17.527Z,6.37
2023-05-13T00:46:45.816Z,6.30
2023-05-13T00:49:12.433Z,6.45
2023-05-13T00:51:39.219Z,6.60
2023-05-13T00:54:05.873Z,6.57
2023-05-13T00:56:32.541Z,6.10
2023-05-13T00:58:59.151Z,6.38
2023-05-13T01:01:34.402Z,6.68
2023-05-13T01:04:13.892Z,5.93
2023-05-13T01:06:50.116Z,5.95
2023-05-13T01:09:25.864Z,6.27
2023-05-13T01:11:55.582Z,5.70
2023-05-13T01:14:28.526Z,5.82
2023-05-13T01:17:01.663Z,6.13
2023-05-13T01:19:41.901Z,5.75
2023-05-13T01:22:10.402Z,5.80
2023-05-13T01:24:37.004Z,5.80
2023-05-13T01:27:04.288Z,5.72
2023-05-13T01:29:31.201Z,6.18
2023-05-13T01:32:00.373Z,6.25
2023-05-13T01:34:27.745Z,6.17
2023-05-13T01:36:54.434Z,6.00
2023-05-13T01:39:23.523Z,6.10
2023-05-13T01:41:50.206Z,6.32
2023-05-13T01:44:16.786Z,6.15
2023-05-13T01:46:43.853Z,6.27
2023-05-13T01:49:10.572Z,6.60
2023-05-13T01:51:37.377Z,6.80
2023-05-13T01:54:04.225Z,6.80
2023-05-13T01:56:32.167Z,6.55
2023-05-13T01:58:58.782Z,6.73
2023-05-13T02:01:25.401Z,6.85
2023-05-13T02:03:52.129Z,6.82
2023-05-13T02:06:18.690Z,6.45
2023-05-13T02:08:45.369Z,6.65
2023-05-13T02:11:11.920Z,6.47
2023-05-13T02:13:39.861Z,6.20
2023-05-13T02:16:06.568Z,6.15
2023-05-13T02:18:33.309Z,6.60
2023-05-13T02:20:59.901Z,6.47
2023-05-13T02:23:26.522Z,6.53
2023-05-13T02:25:53.198Z,6.50
2023-05-13T02:28:19.744Z,6.45
2023-05-13T02:30:47.705Z,6.57
2023-05-13T02:33:14.356Z,6.38
2023-05-13T02:35:40.992Z,6.53
2023-05-13T02:38:09.581Z,6.90
2023-05-13T02:40:36.194Z,6.25
2023-05-13T02:43:02.827Z,6.78
2023-05-13T02:45:29.429Z,6.38
2023-05-13T02:47:57.458Z,6.70
2023-05-13T02:50:24.307Z,6.50
2023-05-13T02:52:51.226Z,6.90
2023-05-13T02:55:17.956Z,6.70
2023-05-13T02:57:44.575Z,6.70
2023-05-13T03:00:12.341Z,6.70
2023-05-13T03:02:38.992Z,6.20
2023-05-13T03:05:08.177Z,5.80
2023-05-13T03:07:35.036Z,5.50
2023-05-13T03:10:01.691Z,5.28
2023-05-13T03:12:28.360Z,5.73
2023-05-13T03:14:54.995Z,5.10
2023-05-13T03:17:21.522Z,5.00
2023-05-13T03:19:48.066Z,4.72
2023-05-13T03:22:16.039Z,5.10
2023-05-13T03:24:42.641Z,5.20
2023-05-13T03:27:09.341Z,5.40
2023-05-13T03:29:35.915Z,5.60
2023-05-13T03:32:04.001Z,5.35
2023-05-13T03:34:30.589Z,4.78
2023-05-13T03:36:57.249Z,5.37
2023-05-13T03:39:25.315Z,4.70
2023-05-13T03:41:51.949Z,4.43
2023-05-13T03:44:18.536Z,5.10
2023-05-13T03:46:45.239Z,4.75
2023-05-13T03:49:12.037Z,4.80
2023-05-13T03:51:38.627Z,4.97
2023-05-13T03:54:05.272Z,5.03
2023-05-13T03:56:33.157Z,5.10
2023-05-13T03:58:59.959Z,4.88
2023-05-13T04:01:26.657Z,4.80
2023-05-13T04:03:53.261Z,4.78
2023-05-13T04:06:22.375Z,5.25
2023-05-13T04:08:48.926Z,5.40
2023-05-13T04:11:15.511Z,5.22
2023-05-13T04:13:43.444Z,5.20
2023-05-13T04:16:10.005Z,5.53
2023-05-13T04:18:36.620Z,5.55
2023-05-13T04:21:06.410Z,4.90
2023-05-13T04:23:33.097Z,5.35
2023-05-13T04:25:59.746Z,5.20
2023-05-13T04:28:26.422Z,4.78
2023-05-13T04:30:54.346Z,5.00
2023-05-13T04:33:21.046Z,5.65
2023-05-13T04:35:47.736Z,5.45
2023-05-13T04:38:14.465Z,5.30
2023-05-13T04:40:41.021Z,5.40
2023-05-13T04:43:07.697Z,5.68
2023-05-13T04:45:34.328Z,5.32
2023-05-13T04:48:02.248Z,5.18
2023-05-13T04:50:28.825Z,5.20
2023-05-13T04:52:58.181Z,5.07
2023-05-13T04:55:27.385Z,4.90
2023-05-13T04:57:54.437Z,5.53
2023-05-13T05:00:21.214Z,5.25
2023-05-13T05:02:47.899Z,5.20
2023-05-13T05:05:18.182Z,4.90
2023-05-13T05:07:45.198Z,4.95
2023-05-13T05:10:11.930Z,5.03
2023-05-13T05:12:38.589Z,4.85
2023-05-13T05:15:06.179Z,5.07
2023-05-13T05:17:33.033Z,4.68
2023-05-13T05:19:59.646Z,5.22
2023-05-13T05:22:28.250Z,4.88
2023-05-13T05:24:54.776Z,4.65
2023-05-13T05:27:21.426Z,5.13
2023-05-13T05:29:47.852Z,4.65
2023-05-13T05:32:14.538Z,4.65
2023-05-13T05:34:41.098Z,5.15
2023-05-13T05:37:07.706Z,5.13
2023-05-13T05:39:35.595Z,4.83
2023-05-13T05:42:02.332Z,4.82
2023-05-13T05:44:28.929Z,4.65
2023-05-13T05:46:55.429Z,4.60
2023-05-13T05:49:22.055Z,4.78
2023-05-13T05:51:48.629Z,4.53
2023-05-13T05:54:15.215Z,4.20
2023-05-13T05:56:43.307Z,4.43
2023-05-13T05:59:09.853Z,4.70
2023-05-13T06:01:36.473Z,4.60
2023-05-13T06:04:03.398Z,5.00
2023-05-13T06:06:30.085Z,4.70
2023-05-13T06:08:56.650Z,5.03
2023-05-13T06:11:23.224Z,4.95
2023-05-13T06:13:51.205Z,4.72
2023-05-13T06:16:17.797Z,4.70
2023-05-13T06:18:44.574Z,5.18
2023-05-13T06:21:11.172Z,4.68
2023-05-13T06:23:37.822Z,5.57
2023-05-13T06:26:04.460Z,5.30
2023-05-13T06:28:31.143Z,5.33
2023-05-13T06:30:59.124Z,5.47
2023-05-13T06:33:25.819Z,5.25
2023-05-13T06:35:52.680Z,4.38
2023-05-13T06:38:19.316Z,5.22
2023-05-13T06:40:45.935Z,4.83
2023-05-13T06:43:12.664Z,4.63
2023-05-13T06:45:39.260Z,4.68
2023-05-13T06:48:07.509Z,4.80
2023-05-13T06:50:34.248Z,4.72
2023-05-13T06:53:00.812Z,4.57
2023-05-13T06:55:27.455Z,4.78
2023-05-13T06:57:54.077Z,4.43
2023-05-13T07:00:21.217Z,4.45
2023-05-13T07:02:48.019Z,3.65
2023-05-13T07:05:16.022Z,4.50
2023-05-13T07:07:42.649Z,4.30
2023-05-13T07:10:10.122Z,4.18
2023-05-13T07:12:36.799Z,4.18
2023-05-13T07:15:03.745Z,4.30
2023-05-13T07:17:30.928Z,4.13
2023-05-13T07:19:57.608Z,4.22
2023-05-13T07:22:25.592Z,4.38
2023-05-13T07:24:52.240Z,3.92
2023-05-13T07:27:19.066Z,4.35
2023-05-13T07:29:45.653Z,4.27
2023-05-13T07:32:12.326Z,4.00
2023-05-13T07:34:39.232Z,3.90
2023-05-13T07:37:05.817Z,4.15
2023-05-13T07:39:33.767Z,3.55
2023-05-13T07:42:00.332Z,3.80
2023-05-13T07:44:26.914Z,3.70
2023-05-13T07:46:53.635Z,4.05
2023-05-13T07:49:20.692Z,4.68
2023-05-13T07:51:47.287Z,4.18
2023-05-13T07:54:13.949Z,4.33
2023-05-13T07:56:41.890Z,3.95
2023-05-13T07:59:08.481Z,4.10
2023-05-13T08:01:35.725Z,4.88
2023-05-13T08:04:02.667Z,4.65
2023-05-13T08:06:29.380Z,4.27
2023-05-13T08:08:55.932Z,3.85
2023-05-13T08:11:23.110Z,4.25
2023-05-13T08:13:51.107Z,3.90
2023-05-13T08:16:17.699Z,3.92
2023-05-13T08:18:44.458Z,4.07
2023-05-13T08:21:11.065Z,4.10
2023-05-13T08:23:45.381Z,3.65
2023-05-13T08:26:12.957Z,3.40
2023-05-13T08:28:39.698Z,3.50
2023-05-13T08:31:07.761Z,3.93
2023-05-13T08:33:34.311Z,3.72
2023-05-13T08:36:01.306Z,3.80
2023-05-13T08:38:28.004Z,3.88
2023-05-13T08:40:54.743Z,4.50
2023-05-13T08:43:23.676Z,4.07
2023-05-13T08:45:51.657Z,3.45
2023-05-13T08:48:24.363Z,3.40
2023-05-13T08:50:52.034Z,4.00
2023-05-13T08:53:18.755Z,3.60
2023-05-13T08:55:45.340Z,3.60
2023-05-13T08:58:11.917Z,3.90
2023-05-13T09:00:39.309Z,3.42
2023-05-13T09:03:05.981Z,4.00
2023-05-13T09:05:37.747Z,3.95
2023-05-13T09:08:08.151Z,3.33
2023-05-13T09:10:35.459Z,3.08
2023-05-13T09:13:02.232Z,3.58
2023-05-13T09:15:29.375Z,3.60
2023-05-13T09:17:59.053Z,3.42
2023-05-13T09:20:25.997Z,4.00
2023-05-13T09:22:57.061Z,3.90
2023-05-13T09:25:24.604Z,3.75
2023-05-13T09:27:53.409Z,4.00
2023-05-13T09:30:20.720Z,3.70
2023-05-13T09:33:06.198Z,3.73
2023-05-13T09:35:33.311Z,3.88
2023-05-13T09:38:01.685Z,3.67
2023-05-13T09:40:28.304Z,3.70
2023-05-13T09:42:57.555Z,3.35
2023-05-13T09:45:24.685Z,3.90
2023-05-13T09:47:52.148Z,3.47
2023-05-13T09:50:18.773Z,3.55
2023-05-13T09:52:45.866Z,3.65
2023-05-13T09:55:14.735Z,3.60
2023-05-13T09:57:41.842Z,3.87
2023-05-13T10:00:17.883Z,3.60
2023-05-13T10:02:48.378Z,3.25
2023-05-13T10:05:15.709Z,3.38
2023-05-13T10:07:42.843Z,3.10
2023-05-13T10:10:10.527Z,3.60
2023-05-13T10:12:41.093Z,4.00
2023-05-13T10:15:09.762Z,3.50
2023-05-13T10:17:37.820Z,3.47
2023-05-13T10:20:05.746Z,3.85
2023-05-13T10:22:33.199Z,3.80
2023-05-13T10:25:01.646Z,4.00
2023-05-13T10:27:29.312Z,3.67
2023-05-13T10:30:00.110Z,3.38
2023-05-13T10:32:30.185Z,3.88
2023-05-13T10:35:03.249Z,3.67
2023-05-13T10:38:00.186Z,3.42
2023-05-13T10:40:50.300Z,3.17
2023-05-13T10:43:18.936Z,3.60
2023-05-13T10:45:48.134Z,3.05
2023-05-13T10:48:16.156Z,3.23
2023-05-13T10:50:51.575Z,3.03
2023-05-13T10:53:20.963Z,3.15
2023-05-13T10:55:53.107Z,3.42
2023-05-13T10:58:19.951Z,3.28
2023-05-13T11:00:48.524Z,3.20
2023-05-13T11:03:29.176Z,3.63
2023-05-13T11:06:01.639Z,3.13
2023-05-13T11:08:38.971Z,3.20
2023-05-13T11:11:25.630Z,3.30
2023-05-13T11:13:52.984Z,2.93
2023-05-13T11:16:21.750Z,2.63
2023-05-13T11:18:48.702Z,3.40
2023-05-13T11:21:15.410Z,3.47
2023-05-13T11:23:53.072Z,3.35
2023-05-13T11:26:19.868Z,3.03
2023-05-13T11:28:54.533Z,4.00
2023-05-13T11:31:23.030Z,3.88
2023-05-13T11:34:14.700Z,3.28
2023-05-13T11:36:42.819Z,3.95
2023-05-13T11:39:11.749Z,3.67
2023-05-13T11:41:41.680Z,3.33
2023-05-13T11:44:08.811Z,3.80
2023-05-13T11:46:36.796Z,3.40
2023-05-13T11:49:05.827Z,3.20
2023-05-13T11:51:34.392Z,4.03
2023-05-13T11:54:02.819Z,3.50
2023-05-13T11:56:30.126Z,3.25
2023-05-13T11:59:12.732Z,2.92
2023-05-13T12:01:40.773Z,3.00
2023-05-13T12:04:07.325Z,3.60
2023-05-13T12:06:34.380Z,3.20
2023-05-13T12:09:05.465Z,3.17
2023-05-13T12:11:32.352Z,2.80
2023-05-13T12:13:59.525Z,3.03
2023-05-13T12:16:26.383Z,3.23
2023-05-13T12:18:59.741Z,3.40
2023-05-13T12:21:31.029Z,3.10
2023-05-13T12:23:57.561Z,3.15
2023-05-13T12:26:24.128Z,3.38
2023-05-13T12:28:58.773Z,3.33
2023-05-13T12:31:25.587Z,2.67
2023-05-13T12:33:52.197Z,3.08
2023-05-13T12:36:22.220Z,3.08
2023-05-13T12:38:59.594Z,3.17
2023-05-13T12:41:28.346Z,2.83
2023-05-13T12:43:59.261Z,2.95
2023-05-13T12:46:26.053Z,3.30
2023-05-13T12:48:55.286Z,2.78
2023-05-13T12:51:23.507Z,3.00
2023-05-13T12:53:52.792Z,3.07
2023-05-13T12:56:19.705Z,2.60
2023-05-13T12:58:46.313Z,2.75
2023-05-13T13:01:12.954Z,2.63
2023-05-13T13:03:39.634Z,2.47
2023-05-13T13:06:06.378Z,2.33
2023-05-13T13:08:34.409Z,2.35
2023-05-13T13:11:00.971Z,2.45
2023-05-13T13:13:27.577Z,2.40
2023-05-13T13:15:55.651Z,2.55
2023-05-13T13:18:22.249Z,2.67
2023-05-13T13:20:48.878Z,2.65
2023-05-13T13:23:15.467Z,2.78
2023-05-13T13:25:43.542Z,2.55
2023-05-13T13:28:10.231Z,2.55
2023-05-13T13:30:37.125Z,2.90
2023-05-13T13:33:04.047Z,2.97
2023-05-13T13:35:30.850Z,2.70
2023-05-13T13:37:57.604Z,2.97
2023-05-13T13:40:24.559Z,3.00
2023-05-13T13:42:52.559Z,3.07
2023-05-13T13:45:19.486Z,2.50
2023-05-13T13:47:46.226Z,3.00
2023-05-13T13:50:12.899Z,3.22
2023-05-13T13:52:39.659Z,2.92
2023-05-13T13:55:07.389Z,3.13
2023-05-13T13:57:33.971Z,3.10
2023-05-13T14:00:01.945Z,3.10
2023-05-13T14:02:28.594Z,2.90
2023-05-13T14:04:55.401Z,2.85
2023-05-13T14:07:21.942Z,3.10
2023-05-13T14:09:48.515Z,2.83
2023-05-13T14:12:15.066Z,2.78
2023-05-13T14:14:41.733Z,2.40
2023-05-13T14:17:10.745Z,2.35
2023-05-13T14:19:38.797Z,2.30
2023-05-13T14:22:05.362Z,2.35
2023-05-13T14:24:31.997Z,2.20
2023-05-13T14:26:58.785Z,2.05
2023-05-13T14:29:26.243Z,2.60
2023-05-13T14:31:52.957Z,2.50
2023-05-13T14:34:20.952Z,2.50
2023-05-13T14:36:47.788Z,2.50
2023-05-13T14:39:14.333Z,2.63
2023-05-13T14:41:40.894Z,2.78
2023-05-13T14:44:07.597Z,2.70
2023-05-13T14:46:35.601Z,2.90
2023-05-13T14:49:02.364Z,2.80
2023-05-13T14:51:30.252Z,2.80
2023-05-13T14:53:56.815Z,2.70
2023-05-13T14:56:23.409Z,2.47
2023-05-13T14:58:50.010Z,2.50
2023-05-13T15:01:16.585Z,2.72
2023-05-13T15:03:43.406Z,2.72
2023-05-13T15:06:10.168Z,2.33
2023-05-13T15:08:38.462Z,2.90
2023-05-13T15:11:05.634Z,2.80
2023-05-13T15:13:32.171Z,2.42
2023-05-13T15:15:59.175Z,2.50
2023-05-13T15:18:25.920Z,2.50
2023-05-13T15:20:52.555Z,2.80
2023-05-13T15:23:19.171Z,2.28
2023-05-13T15:25:47.505Z,2.80
2023-05-13T15:28:14.471Z,2.60
2023-05-13T15:30:41.143Z,2.83
2023-05-13T15:33:07.927Z,3.07
2023-05-13T15:35:34.621Z,2.65
2023-05-13T15:38:01.310Z,2.42
2023-05-13T15:40:27.900Z,2.72
2023-05-13T15:42:55.801Z,2.80
2023-05-13T15:45:22.461Z,3.10
2023-05-13T15:47:49.058Z,2.65
2023-05-13T15:50:15.698Z,2.80
2023-05-13T15:52:42.408Z,2.60
2023-05-13T15:55:08.964Z,3.20
2023-05-13T15:57:35.557Z,3.00
2023-05-13T16:00:04.572Z,3.00
2023-05-13T16:02:31.144Z,2.42
2023-05-13T16:04:58.403Z,2.67
2023-05-13T16:07:24.960Z,2.70
2023-05-13T16:09:51.490Z,2.60
2023-05-13T16:12:18.064Z,2.65
2023-05-13T16:14:44.690Z,2.50
2023-05-13T16:17:12.650Z,2.70
2023-05-13T16:19:39.260Z,2.50
2023-05-13T16:22:25.379Z,3.20
2023-05-13T16:24:52.224Z,2.53
2023-05-13T16:27:18.756Z,2.90
2023-05-13T16:29:45.320Z,2.70
2023-05-13T16:32:13.369Z,3.22
2023-05-13T16:34:40.292Z,3.00
2023-05-13T16:37:06.869Z,2.60
2023-05-13T16:39:33.466Z,2.83
2023-05-13T16:42:00.029Z,2.20
2023-05-13T16:44:26.787Z,2.67
2023-05-13T16:46:53.320Z,2.93
2023-05-13T16:49:21.282Z,2.63
2023-05-13T16:51:48.078Z,2.85
2023-05-13T16:54:14.660Z,2.20
2023-05-13T16:56:41.433Z,2.20
2023-05-13T16:59:08.688Z,2.53
2023-05-13T17:01:36.803Z,2.63
2023-05-13T17:04:03.479Z,2.60
2023-05-13T17:06:31.411Z,2.65
2023-05-13T17:08:58.002Z,2.72
2023-05-13T17:11:24.533Z,3.10
2023-05-13T17:13:51.138Z,2.72
2023-05-13T17:16:17.748Z,2.78
2023-05-13T17:18:44.311Z,2.60
2023-05-13T17:21:10.871Z,2.97
2023-05-13T17:23:38.810Z,3.07
2023-05-13T17:26:05.467Z,3.45
2023-05-13T17:28:32.106Z,2.70
2023-05-13T17:30:58.798Z,3.22
2023-05-13T17:33:25.561Z,3.17
2023-05-13T17:35:52.217Z,3.27
2023-05-13T17:38:19.165Z,3.33
2023-05-13T17:40:47.185Z,2.90
2023-05-13T17:43:13.740Z,3.35
2023-05-13T17:45:41.252Z,2.88
2023-05-13T17:48:08.284Z,3.00
2023-05-13T17:50:34.958Z,3.50
2023-05-13T17:53:01.604Z,3.05
2023-05-13T17:55:28.747Z,2.75
2023-05-13T17:57:57.568Z,2.90
2023-05-13T18:00:25.045Z,3.20
2023-05-13T18:02:51.705Z,3.10
2023-05-13T18:05:18.578Z,2.80
2023-05-13T18:07:45.153Z,2.67
2023-05-13T18:10:12.328Z,2.70
2023-05-13T18:12:39.146Z,2.93
2023-05-13T18:15:07.953Z,3.00
2023-05-13T18:17:34.589Z,2.88
2023-05-13T18:20:01.248Z,2.55
2023-05-13T18:22:27.830Z,2.95
2023-05-13T18:24:54.362Z,3.00
2023-05-13T18:27:20.904Z,2.70
2023-05-13T18:29:47.501Z,3.03
2023-05-13T18:32:15.439Z,3.17
2023-05-13T18:34:41.984Z,2.78
2023-05-13T18:37:08.688Z,3.30
2023-05-13T18:39:35.281Z,3.00
2023-05-13T18:42:01.951Z,2.90
2023-05-13T18:44:29.223Z,3.22
2023-05-13T18:46:55.937Z,2.88
2023-05-13T18:49:25.248Z,3.10
2023-05-13T18:51:51.810Z,2.90
2023-05-13T18:54:18.427Z,3.20
2023-05-13T18:56:45.142Z,2.83
2023-05-13T18:59:13.283Z,3.08
2023-05-13T19:01:39.921Z,2.87
2023-05-13T19:04:06.801Z,3.20
2023-05-13T19:06:36.294Z,3.30
2023-05-13T19:09:02.844Z,3.55
2023-05-13T19:11:29.440Z,3.35
2023-05-13T19:13:55.992Z,3.20
2023-05-13T19:16:22.585Z,3.35
2023-05-13T19:18:49.488Z,3.97
2023-05-13T19:21:16.221Z,3.65
2023-05-13T19:23:44.211Z,3.60
2023-05-13T19:26:10.792Z,3.87
2023-05-13T19:28:38.237Z,3.80
2023-05-13T19:31:05.047Z,3.83
2023-05-13T19:33:31.988Z,3.80
2023-05-13T19:35:58.689Z,3.55
2023-05-13T19:38:25.334Z,4.00
2023-05-13T19:40:54.787Z,3.40
2023-05-13T19:43:21.378Z,3.80
2023-05-13T19:45:48.066Z,3.70
2023-05-13T19:48:14.691Z,3.50
2023-05-13T19:50:41.287Z,3.93
2023-05-13T19:53:08.434Z,3.88
2023-05-13T19:55:35.545Z,4.05
2023-05-13T19:58:03.541Z,4.10
2023-05-13T20:00:30.207Z,3.67
2023-05-13T20:02:56.900Z,3.93
2023-05-13T20:05:23.554Z,3.92
2023-05-13T20:07:50.118Z,4.05
2023-05-13T20:10:16.641Z,3.90
2023-05-13T20:12:44.677Z,3.83
2023-05-13T20:15:12.691Z,3.80
2023-05-13T20:17:39.583Z,3.90
2023-05-13T20:20:08.698Z,3.60
2023-05-13T20:22:35.343Z,3.88
2023-05-13T20:25:02.179Z,3.63
2023-05-13T20:27:28.803Z,3.63
2023-05-13T20:29:55.419Z,3.10
2023-05-13T20:32:23.597Z,3.40
2023-05-13T20:34:50.313Z,3.50
2023-05-13T20:37:16.842Z,3.67
2023-05-13T20:39:44.709Z,3.70
2023-05-13T20:42:11.277Z,3.70
2023-05-13T20:44:38.196Z,3.50
2023-05-13T20:47:05.398Z,3.95
2023-05-13T20:49:39.436Z,4.05
2023-05-13T20:52:08.494Z,4.00
2023-05-13T20:54:36.097Z,3.80
2023-05-13T20:57:02.690Z,4.03
2023-05-13T20:59:29.931Z,3.75
2023-05-13T21:01:56.708Z,3.92
2023-05-13T21:04:23.808Z,4.10
2023-05-13T21:06:51.791Z,3.90
2023-05-13T21:09:18.385Z,4.00
2023-05-13T21:11:45.021Z,3.55
2023-05-13T21:14:11.588Z,3.58
2023-05-13T21:16:38.156Z,4.00
2023-05-13T21:19:04.849Z,3.70
2023-05-13T21:21:31.663Z,3.90
2023-05-13T21:23:59.631Z,3.83
2023-05-13T21:26:26.311Z,3.95
2023-05-13T21:28:52.981Z,4.00
2023-05-13T21:31:19.618Z,3.40
2023-05-13T21:33:46.206Z,3.80
2023-05-13T21:36:12.844Z,3.63
2023-05-13T21:38:39.365Z,3.85
2023-05-13T21:41:07.294Z,3.90
2023-05-13T21:43:33.867Z,4.32
2023-05-13T21:46:00.579Z,4.20
2023-05-13T21:48:27.223Z,4.38
2023-05-13T21:50:53.821Z,3.50
2023-05-13T21:53:20.597Z,3.60
2023-05-13T21:55:47.228Z,3.97
2023-05-13T21:58:15.434Z,4.18
2023-05-13T22:00:42.037Z,4.00
2023-05-13T22:03:08.658Z,3.70
2023-05-13T22:05:35.278Z,3.70
2023-05-13T22:08:01.879Z,4.05
2023-05-13T22:10:29.933Z,4.00
2023-05-13T22:12:56.433Z,4.10
2023-05-13T22:15:24.333Z,3.78
2023-05-13T22:17:51.125Z,3.90
2023-05-13T22:20:17.922Z,3.72
2023-05-13T22:22:44.607Z,3.80
2023-05-13T22:25:11.276Z,3.50
2023-05-13T22:27:37.803Z,4.10
2023-05-13T22:30:05.373Z,3.70
2023-05-13T22:32:33.279Z,3.65
2023-05-13T22:34:59.998Z,3.80
2023-05-13T22:37:26.601Z,3.78
2023-05-13T22:39:53.171Z,3.50
2023-05-13T22:42:19.736Z,3.67
2023-05-13T22:44:46.274Z,3.60
2023-05-13T22:47:12.918Z,4.20
2023-05-13T22:49:40.871Z,3.92
2023-05-13T22:52:07.447Z,3.80
2023-05-13T22:54:34.216Z,3.67
2023-05-13T22:57:00.793Z,3.50
2023-05-13T22:59:27.353Z,3.58
2023-05-13T23:01:54.173Z,3.90
2023-05-13T23:04:20.837Z,3.95
2023-05-13T23:06:48.864Z,3.90
2023-05-13T23:09:15.472Z,3.72
2023-05-13T23:11:42.095Z,3.92
2023-05-13T23:14:08.803Z,4.30
2023-05-13T23:16:35.746Z,4.38
2023-05-13T23:19:02.813Z,3.70
2023-05-13T23:21:29.509Z,4.10
2023-05-13T23:23:57.617Z,3.70
2023-05-13T23:26:24.165Z,4.10
2023-05-13T23:28:50.706Z,4.30
2023-05-13T23:31:26.672Z,4.33
2023-05-13T23:34:08.628Z,3.83
2023-05-13T23:36:35.443Z,4.22
2023-05-13T23:39:03.525Z,4.60
2023-05-13T23:41:30.092Z,4.30
2023-05-13T23:43:56.629Z,4.20
2023-05-13T23:46:23.343Z,4.20
2023-05-13T23:48:50.079Z,4.47
2023-05-13T23:51:16.611Z,4.45
2023-05-13T23:53:43.358Z,4.65
2023-05-13T23:56:11.297Z,4.77
2023-05-13T23:58:37.861Z,4.70
